createdAt,value
2018-03-17T00:00:23.333Z,31.10
2018-03-17T00:02:51.556Z,34.13
2018-03-17T00:05:19.771Z,35.53
2018-03-17T00:07:49.026Z,33.90
2018-03-17T00:10:17.307Z,31.83
2018-03-17T00:12:46.683Z,32.03
2018-03-17T00:15:14.869Z,34.77
2018-03-17T00:17:43.099Z,35.47
2018-03-17T00:20:12.146Z,32.83
2018-03-17T00:22:40.415Z,31.80
2018-03-17T00:25:08.652Z,33.33
2018-03-17T00:27:37.621Z,34.07
2018-03-17T00:30:05.865Z,33.47
2018-03-17T00:32:34.112Z,31.67
2018-03-17T00:35:02.723Z,32.00
2018-03-17T00:37:30.926Z,31.03
2018-03-17T00:39:59.215Z,32.43
2018-03-17T00:42:28.207Z,34.47
2018-03-17T00:44:57.215Z,33.03
2018-03-17T00:47:26.241Z,30.20
2018-03-17T00:49:55.374Z,29.70
2018-03-17T00:52:23.572Z,29.53
2018-03-17T00:54:52.566Z,30.40
2018-03-17T00:57:21.589Z,30.47
2018-03-17T00:59:49.952Z,32.53
2018-03-17T01:02:18.217Z,32.37
2018-03-17T01:04:47.556Z,32.30
2018-03-17T01:07:15.812Z,31.80
2018-03-17T01:09:44.804Z,30.77
2018-03-17T01:12:13.119Z,33.40
2018-03-17T01:14:41.363Z,33.23
2018-03-17T01:17:10.429Z,32.63
2018-03-17T01:19:38.609Z,31.63
2018-03-17T01:22:07.586Z,32.13
2018-03-17T01:24:35.889Z,34.43
2018-03-17T01:27:04.245Z,33.47
2018-03-17T01:29:33.264Z,32.63
2018-03-17T01:32:01.542Z,33.07
2018-03-17T01:34:29.749Z,31.03
2018-03-17T01:36:57.950Z,32.40
2018-03-17T01:39:26.197Z,30.97
2018-03-17T01:41:54.417Z,31.43
2018-03-17T01:44:22.613Z,29.07
2018-03-17T01:46:50.887Z,30.53
2018-03-17T01:49:21.093Z,29.67
2018-03-17T01:51:50.069Z,29.97
2018-03-17T01:54:30.122Z,28.73
2018-03-17T01:56:58.324Z,31.20
2018-03-17T01:59:27.343Z,31.40
2018-03-17T02:01:55.632Z,28.93
2018-03-17T02:04:23.849Z,29.63
2018-03-17T02:06:52.233Z,30.33
2018-03-17T02:09:20.441Z,30.23
2018-03-17T02:11:48.634Z,28.43
2018-03-17T02:14:16.864Z,29.27
2018-03-17T02:16:45.858Z,29.77
2018-03-17T02:19:14.853Z,29.87
2018-03-17T02:21:43.833Z,28.50
2018-03-17T02:24:12.605Z,28.93
2018-03-17T02:26:40.804Z,28.60
2018-03-17T02:29:09.019Z,28.83
2018-03-17T02:31:37.266Z,28.30
2018-03-17T02:34:06.267Z,26.80
2018-03-17T02:36:35.282Z,28.53
2018-03-17T02:39:03.513Z,30.27
2018-03-17T02:41:32.540Z,27.73
2018-03-17T02:44:00.696Z,30.43
2018-03-17T02:46:29.746Z,27.87
2018-03-17T02:48:57.969Z,28.87
2018-03-17T02:51:26.996Z,29.50
2018-03-17T02:53:55.255Z,29.03
2018-03-17T02:56:23.464Z,29.60
2018-03-17T02:58:51.704Z,30.30
2018-03-17T03:01:19.973Z,27.93
2018-03-17T03:03:48.937Z,29.53
2018-03-17T03:06:17.129Z,30.70
2018-03-17T03:08:48.577Z,31.40
2018-03-17T03:11:16.774Z,31.67
2018-03-17T03:13:44.981Z,31.40
2018-03-17T03:16:13.388Z,31.37
2018-03-17T03:18:41.583Z,34.57
2018-03-17T03:21:10.581Z,32.47
2018-03-17T03:23:38.824Z,32.43
2018-03-17T03:26:07.048Z,32.87
2018-03-17T03:28:36.014Z,34.33
2018-03-17T03:31:04.253Z,33.53
2018-03-17T03:33:32.473Z,34.70
2018-03-17T03:36:00.684Z,33.13
2018-03-17T03:38:28.959Z,33.70
2018-03-17T03:40:57.160Z,34.90
2018-03-17T03:43:25.369Z,34.47
2018-03-17T03:45:54.429Z,32.43
2018-03-17T03:48:22.653Z,34.10
2018-03-17T03:50:50.904Z,33.57
2018-03-17T03:53:20.384Z,35.73
2018-03-17T03:55:49.626Z,33.57
2018-03-17T03:58:18.596Z,33.53
2018-03-17T04:00:46.861Z,31.57
2018-03-17T04:03:15.062Z,31.43
2018-03-17T04:05:44.024Z,32.37
2018-03-17T04:08:12.300Z,34.40
2018-03-17T04:10:40.537Z,31.03
2018-03-17T04:13:08.852Z,31.60
2018-03-17T04:15:37.122Z,30.93
2018-03-17T04:18:05.366Z,30.23
2018-03-17T04:20:33.602Z,30.50
2018-03-17T04:23:02.621Z,29.73
2018-03-17T04:25:31.627Z,29.07
2018-03-17T04:27:59.874Z,30.60
2018-03-17T04:30:28.136Z,29.13
2018-03-17T04:32:56.379Z,29.53
2018-03-17T04:35:24.572Z,29.20
2018-03-17T04:37:52.880Z,30.37
2018-03-17T04:40:21.840Z,28.53
2018-03-17T04:42:50.089Z,29.00
2018-03-17T04:45:18.400Z,28.87
2018-03-17T04:47:46.664Z,25.30
2018-03-17T04:50:14.938Z,29.63
2018-03-17T04:52:43.200Z,28.17
2018-03-17T04:55:11.444Z,28.17
2018-03-17T04:57:39.666Z,27.13
2018-03-17T05:00:08.773Z,26.47
2018-03-17T05:02:36.997Z,25.07
2018-03-17T05:05:05.267Z,25.90
2018-03-17T05:07:33.506Z,27.10
2018-03-17T05:10:01.733Z,27.33
2018-03-17T05:12:29.945Z,25.70
2018-03-17T05:14:58.176Z,26.60
2018-03-17T05:17:26.387Z,27.37
2018-03-17T05:19:54.594Z,25.37
2018-03-17T05:22:23.684Z,25.20
2018-03-17T05:24:51.902Z,25.10
2018-03-17T05:27:20.128Z,24.20
2018-03-17T05:29:48.376Z,22.20
2018-03-17T05:32:16.635Z,23.13
2018-03-17T05:34:44.828Z,20.10
2018-03-17T05:37:13.071Z,22.83
2018-03-17T05:39:41.373Z,19.90
2018-03-17T05:42:09.606Z,20.97
2018-03-17T05:44:38.717Z,20.80
2018-03-17T05:47:06.938Z,19.47
2018-03-17T05:49:35.153Z,21.23
2018-03-17T05:52:04.209Z,21.10
2018-03-17T05:54:32.417Z,20.23
2018-03-17T05:57:04.992Z,20.10
2018-03-17T05:59:34.051Z,20.40
2018-03-17T06:02:02.284Z,20.50
2018-03-17T06:04:30.778Z,19.77
2018-03-17T06:06:58.972Z,21.17
2018-03-17T06:09:27.237Z,18.97
2018-03-17T06:11:55.609Z,19.87
2018-03-17T06:14:23.862Z,20.70
2018-03-17T06:16:52.056Z,20.30
2018-03-17T06:19:20.321Z,20.43
2018-03-17T06:21:48.513Z,20.20
2018-03-17T06:24:16.792Z,20.23
2018-03-17T06:26:45.060Z,20.20
2018-03-17T06:29:13.313Z,20.33
2018-03-17T06:31:42.296Z,20.97
2018-03-17T06:34:10.520Z,21.77
2018-03-17T06:36:38.737Z,20.53
2018-03-17T06:39:08.078Z,20.97
2018-03-17T06:41:36.311Z,22.67
2018-03-17T06:44:04.595Z,20.77
2018-03-17T06:46:32.796Z,22.03
2018-03-17T06:49:01.085Z,22.13
2018-03-17T06:51:29.343Z,22.80
2018-03-17T06:53:57.743Z,21.97
2018-03-17T06:59:04.211Z,23.00
2018-03-17T07:01:32.449Z,22.43
2018-03-17T07:04:00.775Z,22.10
2018-03-17T07:06:29.061Z,23.47
2018-03-17T07:08:57.277Z,21.57
2018-03-17T07:11:25.501Z,23.90
2018-03-17T07:13:53.753Z,23.83
2018-03-17T07:16:22.520Z,23.17
2018-03-17T07:18:50.712Z,24.13
2018-03-17T07:21:19.707Z,23.40
2018-03-17T07:23:48.689Z,22.80
2018-03-17T07:26:17.735Z,23.43
2018-03-17T07:28:45.971Z,23.80
2018-03-17T07:31:14.949Z,22.33
2018-03-17T07:33:43.928Z,25.10
2018-03-17T07:36:12.317Z,25.63
2018-03-17T07:38:40.593Z,23.83
2018-03-17T07:41:08.936Z,22.87
2018-03-17T07:43:37.233Z,23.47
2018-03-17T07:46:05.693Z,24.57
2018-03-17T07:48:33.884Z,24.33
2018-03-17T07:51:02.144Z,24.07
2018-03-17T07:53:30.404Z,25.13
2018-03-17T07:55:58.592Z,24.80
2018-03-17T07:58:27.034Z,22.80
2018-03-17T08:00:57.366Z,23.97
2018-03-17T08:03:25.639Z,22.57
2018-03-17T08:05:54.866Z,24.30
2018-03-17T08:08:23.529Z,23.17
2018-03-17T08:10:52.561Z,22.70
2018-03-17T08:13:20.847Z,22.87
2018-03-17T08:15:49.162Z,22.93
2018-03-17T08:18:17.382Z,23.57
2018-03-17T08:20:46.383Z,24.97
2018-03-17T08:23:14.627Z,23.80
2018-03-17T08:25:43.579Z,24.73
2018-03-17T08:28:11.887Z,23.03
2018-03-17T08:30:40.205Z,23.03
2018-03-17T08:33:08.406Z,21.97
2018-03-17T08:35:36.720Z,23.10
2018-03-17T08:38:05.732Z,22.73
2018-03-17T08:40:34.034Z,22.93
2018-03-17T08:43:03.308Z,23.67
2018-03-17T08:45:32.269Z,22.97
2018-03-17T08:48:00.490Z,23.23
2018-03-17T08:50:28.788Z,21.97
2018-03-17T08:52:57.172Z,22.53
2018-03-17T08:55:25.520Z,22.43
2018-03-17T08:57:53.752Z,22.73
2018-03-17T09:00:22.032Z,22.10
2018-03-17T09:02:51.066Z,23.57
2018-03-17T09:05:19.304Z,22.40
2018-03-17T09:07:48.282Z,23.33
2018-03-17T09:10:16.539Z,23.33
2018-03-17T09:12:44.745Z,22.00
2018-03-17T09:15:13.834Z,23.50
2018-03-17T09:17:42.052Z,20.57
2018-03-17T09:20:10.410Z,22.63
2018-03-17T09:22:39.460Z,21.40
2018-03-17T09:25:07.749Z,21.20
2018-03-17T09:27:36.023Z,22.97
2018-03-17T09:30:04.213Z,22.97
2018-03-17T09:32:33.221Z,22.03
2018-03-17T09:35:02.236Z,23.10
2018-03-17T09:37:30.513Z,22.50
2018-03-17T09:39:58.771Z,23.53
2018-03-17T09:42:27.062Z,24.20
2018-03-17T09:44:55.421Z,22.37
2018-03-17T09:47:24.446Z,24.63
2018-03-17T09:49:52.712Z,22.90
2018-03-17T09:52:21.015Z,23.93
2018-03-17T09:54:49.206Z,23.57
2018-03-17T09:57:17.441Z,24.33
2018-03-17T09:59:45.847Z,22.83
2018-03-17T10:02:14.108Z,22.03
2018-03-17T10:04:42.368Z,22.60
2018-03-17T10:07:10.644Z,22.97
2018-03-17T10:09:38.841Z,23.40
2018-03-17T10:12:07.325Z,21.53
2018-03-17T10:14:35.578Z,22.03
2018-03-17T10:17:03.794Z,24.03
2018-03-17T10:19:32.020Z,21.83
2018-03-17T10:22:00.320Z,22.23
2018-03-17T10:24:28.569Z,21.93
2018-03-17T10:26:57.779Z,20.63
2018-03-17T10:29:26.833Z,20.47
2018-03-17T10:34:27.798Z,20.83
2018-03-17T10:36:56.027Z,22.20
2018-03-17T10:39:24.265Z,20.17
2018-03-17T10:41:53.476Z,20.90
2018-03-17T10:44:21.765Z,21.53
2018-03-17T10:46:50.533Z,21.47
2018-03-17T10:49:19.094Z,21.27
2018-03-17T10:51:47.438Z,20.73
2018-03-17T10:54:15.693Z,22.13
2018-03-17T10:56:44.658Z,21.40
2018-03-17T10:59:13.704Z,19.40
2018-03-17T11:01:41.928Z,20.43
2018-03-17T11:04:10.149Z,19.97
2018-03-17T11:06:38.392Z,20.53
2018-03-17T11:09:07.450Z,19.97
2018-03-17T11:11:35.743Z,20.47
2018-03-17T11:14:03.929Z,20.60
2018-03-17T11:16:32.136Z,21.07
2018-03-17T11:19:00.370Z,19.47
2018-03-17T11:21:28.587Z,20.80
2018-03-17T11:23:56.811Z,20.63
2018-03-17T11:26:25.088Z,21.67
2018-03-17T11:28:53.280Z,21.23
2018-03-17T11:31:22.277Z,20.80
2018-03-17T11:33:50.568Z,20.67
2018-03-17T11:36:18.732Z,21.17
2018-03-17T11:38:46.961Z,20.43
2018-03-17T11:41:15.945Z,22.00
2018-03-17T11:43:44.173Z,20.87
2018-03-17T11:46:13.150Z,20.30
2018-03-17T11:48:41.380Z,21.70
2018-03-17T11:51:09.621Z,21.00
2018-03-17T11:53:38.632Z,21.73
2018-03-17T11:56:07.701Z,20.93
2018-03-17T11:58:35.979Z,21.37
2018-03-17T12:01:04.226Z,20.30
2018-03-17T12:03:32.458Z,20.60
2018-03-17T12:06:00.701Z,20.40
2018-03-17T12:08:30.289Z,19.80
2018-03-17T12:10:58.589Z,22.20
2018-03-17T12:13:26.787Z,19.70
2018-03-17T12:15:55.893Z,20.10
2018-03-17T12:18:24.204Z,19.20
2018-03-17T12:20:52.517Z,20.63
2018-03-17T12:23:20.840Z,20.80
2018-03-17T12:25:49.094Z,19.70
2018-03-17T12:28:17.359Z,20.13
2018-03-17T12:30:46.326Z,19.47
2018-03-17T12:33:14.821Z,19.43
2018-03-17T12:35:43.053Z,19.23
2018-03-17T12:38:11.278Z,19.37
2018-03-17T12:40:40.300Z,19.37
2018-03-17T12:43:08.608Z,20.80
2018-03-17T12:45:36.817Z,20.63
2018-03-17T12:48:05.048Z,19.87
2018-03-17T12:50:33.326Z,20.03
2018-03-17T12:53:01.590Z,21.03
2018-03-17T12:55:30.564Z,21.20
2018-03-17T12:57:58.922Z,22.60
2018-03-17T13:00:27.909Z,20.60
2018-03-17T13:02:56.171Z,21.20
2018-03-17T13:05:24.361Z,19.97
2018-03-17T13:07:52.571Z,21.17
2018-03-17T13:10:22.299Z,21.37
2018-03-17T13:12:50.543Z,22.30
2018-03-17T13:15:19.564Z,20.47
2018-03-17T13:17:47.925Z,22.53
2018-03-17T13:20:16.950Z,21.97
2018-03-17T13:22:56.969Z,22.03
2018-03-17T13:25:25.176Z,22.93
2018-03-17T13:28:05.186Z,23.13
2018-03-17T13:30:34.260Z,22.03
2018-03-17T13:33:02.731Z,23.87
2018-03-17T13:35:42.757Z,22.93
2018-03-17T13:38:11.033Z,24.43
2018-03-17T13:40:42.178Z,23.30
2018-03-17T13:43:10.575Z,22.23
2018-03-17T13:45:38.805Z,23.07
2018-03-17T13:48:07.111Z,23.40
2018-03-17T13:50:35.377Z,24.03
2018-03-17T13:53:03.595Z,23.50
2018-03-17T13:55:31.814Z,23.67
2018-03-17T13:58:00.066Z,23.03
2018-03-17T14:00:29.037Z,21.87
2018-03-17T14:02:57.353Z,22.37
2018-03-17T14:05:25.668Z,22.43
2018-03-17T14:07:53.855Z,24.27
2018-03-17T14:12:46.668Z,21.57
2018-03-17T14:15:15.822Z,23.53
2018-03-17T14:17:44.937Z,24.43
2018-03-17T14:20:13.217Z,25.67
2018-03-17T14:22:41.501Z,22.57
2018-03-17T14:25:10.472Z,23.63
2018-03-17T14:27:39.995Z,24.13
2018-03-17T14:30:09.124Z,24.20
2018-03-17T14:32:37.333Z,24.43
2018-03-17T14:35:05.625Z,23.23
2018-03-17T14:37:33.935Z,24.43
2018-03-17T14:40:02.391Z,24.63
2018-03-17T14:42:30.691Z,23.93
2018-03-17T14:44:59.737Z,22.23
2018-03-17T14:47:28.181Z,23.37
2018-03-17T14:49:56.502Z,24.83
2018-03-17T14:52:24.784Z,23.57
2018-03-17T14:54:53.087Z,24.50
2018-03-17T14:57:22.115Z,23.80
2018-03-17T14:59:50.359Z,24.30
2018-03-17T15:02:19.373Z,23.23
2018-03-17T15:04:48.391Z,24.63
2018-03-17T15:07:16.656Z,24.47
2018-03-17T15:09:45.921Z,24.50
2018-03-17T15:12:17.372Z,24.10
2018-03-17T15:14:46.499Z,23.93
2018-03-17T15:17:14.868Z,26.27
2018-03-17T15:19:43.141Z,25.50
2018-03-17T15:22:11.346Z,23.60
2018-03-17T15:24:39.909Z,24.00
2018-03-17T15:27:08.208Z,25.23
2018-03-17T15:29:36.429Z,24.10
2018-03-17T15:32:05.434Z,24.73
2018-03-17T15:34:34.483Z,23.67
2018-03-17T15:37:02.712Z,23.60
2018-03-17T15:39:30.985Z,22.83
2018-03-17T15:41:59.222Z,22.43
2018-03-17T15:44:27.529Z,23.67
2018-03-17T15:46:56.499Z,23.67
2018-03-17T15:49:24.888Z,24.90
2018-03-17T15:51:53.933Z,21.97
2018-03-17T15:54:22.319Z,23.13
2018-03-17T15:56:51.216Z,23.70
2018-03-17T15:59:19.529Z,23.47
2018-03-17T16:01:48.525Z,24.60
2018-03-17T16:04:17.400Z,24.23
2018-03-17T16:06:45.621Z,25.00
2018-03-17T16:09:14.377Z,24.57
2018-03-17T16:11:42.591Z,24.10
2018-03-17T16:14:10.924Z,24.60
2018-03-17T16:16:39.270Z,23.63
2018-03-17T16:19:07.580Z,26.07
2018-03-17T16:21:35.817Z,24.70
2018-03-17T16:24:04.060Z,23.57
2018-03-17T16:26:33.075Z,23.33
2018-03-17T16:29:01.320Z,22.80
2018-03-17T16:31:30.322Z,24.40
2018-03-17T16:33:58.598Z,22.63
2018-03-17T16:36:26.837Z,24.37
2018-03-17T16:38:55.045Z,22.63
2018-03-17T16:41:23.346Z,22.90
2018-03-17T16:43:51.634Z,23.13
2018-03-17T16:46:19.841Z,21.20
2018-03-17T16:48:48.073Z,22.93
2018-03-17T16:51:19.834Z,23.87
2018-03-17T16:53:48.121Z,20.43
2018-03-17T16:56:16.429Z,22.60
2018-03-17T16:58:44.685Z,21.10
2018-03-17T17:01:12.943Z,22.53
2018-03-17T17:03:43.752Z,22.97
2018-03-17T17:06:12.173Z,22.70
2018-03-17T17:08:40.401Z,22.23
2018-03-17T17:11:08.678Z,22.47
2018-03-17T17:13:36.901Z,22.60
2018-03-17T17:16:05.161Z,22.93
2018-03-17T17:18:33.468Z,22.27
2018-03-17T17:21:01.781Z,22.63
2018-03-17T17:23:30.025Z,23.67
2018-03-17T17:25:58.345Z,21.80
2018-03-17T17:28:26.623Z,20.47
2018-03-17T17:30:54.817Z,22.43
2018-03-17T17:33:23.283Z,22.03
2018-03-17T17:35:51.555Z,21.80
2018-03-17T17:38:19.914Z,21.27
2018-03-17T17:40:48.971Z,21.80
2018-03-17T17:43:17.236Z,21.80
2018-03-17T17:45:45.509Z,20.50
2018-03-17T17:48:14.504Z,22.40
2018-03-17T17:50:44.087Z,21.93
2018-03-17T17:53:16.542Z,20.40
2018-03-17T17:55:44.858Z,21.77
2018-03-17T17:58:13.124Z,22.93
2018-03-17T18:00:41.477Z,22.57
2018-03-17T18:03:09.701Z,23.20
2018-03-17T18:05:37.900Z,22.30
2018-03-17T18:08:06.149Z,21.13
2018-03-17T18:10:34.381Z,21.53
2018-03-17T18:13:02.588Z,22.13
2018-03-17T18:15:30.829Z,22.00
2018-03-17T18:17:59.036Z,21.93
2018-03-17T18:20:27.262Z,22.80
2018-03-17T18:22:56.276Z,22.87
2018-03-17T18:25:25.342Z,22.70
2018-03-17T18:27:53.714Z,21.73
2018-03-17T18:30:21.969Z,21.50
2018-03-17T18:32:50.287Z,21.00
2018-03-17T18:35:19.310Z,20.37
2018-03-17T18:37:47.553Z,19.43
2018-03-17T18:40:16.591Z,22.00
2018-03-17T18:42:44.822Z,21.83
2018-03-17T18:45:15.146Z,22.37
2018-03-17T18:47:43.323Z,21.90
2018-03-17T18:50:13.176Z,23.27
2018-03-17T18:52:42.341Z,22.20
2018-03-17T18:55:11.542Z,20.50
2018-03-17T18:57:39.761Z,21.30
2018-03-17T19:00:08.302Z,21.60
2018-03-17T19:02:36.510Z,21.63
2018-03-17T19:05:04.786Z,20.53
2018-03-17T19:07:33.074Z,24.07
2018-03-17T19:10:01.314Z,21.77
2018-03-17T19:12:29.562Z,21.87
2018-03-17T19:14:58.624Z,22.90
2018-03-17T19:17:26.837Z,21.33
2018-03-17T19:19:55.082Z,22.07
2018-03-17T19:22:23.348Z,21.57
2018-03-17T19:24:51.567Z,21.83
2018-03-17T19:27:20.360Z,22.70
2018-03-17T19:29:49.420Z,21.77
2018-03-17T19:32:17.619Z,21.10
2018-03-17T19:34:46.801Z,21.50
2018-03-17T19:37:15.106Z,21.93
2018-03-17T19:39:44.128Z,22.50
2018-03-17T19:42:12.443Z,22.10
2018-03-17T19:44:40.809Z,21.70
2018-03-17T19:47:09.014Z,22.97
2018-03-17T19:49:37.269Z,21.57
2018-03-17T19:52:05.511Z,22.00
2018-03-17T19:56:57.523Z,20.73
2018-03-17T19:59:26.631Z,21.07
2018-03-17T20:01:55.613Z,22.30
2018-03-17T20:04:24.634Z,20.03
2018-03-17T20:06:52.886Z,21.13
2018-03-17T20:09:21.856Z,21.07
2018-03-17T20:11:50.074Z,21.77
2018-03-17T20:14:18.367Z,21.87
2018-03-17T20:16:46.553Z,21.43
2018-03-17T20:19:14.910Z,20.33
2018-03-17T20:21:44.012Z,20.90
2018-03-17T20:24:12.317Z,22.73
2018-03-17T20:26:40.537Z,21.13
2018-03-17T20:29:09.541Z,21.40
2018-03-17T20:31:37.745Z,22.20
2018-03-17T20:34:05.999Z,21.53
2018-03-17T20:36:34.329Z,22.13
2018-03-17T20:39:02.574Z,22.40
2018-03-17T20:41:30.821Z,21.87
2018-03-17T20:43:59.095Z,21.00
2018-03-17T20:46:27.687Z,20.70
2018-03-17T20:48:56.005Z,21.90
2018-03-17T20:51:24.365Z,23.33
2018-03-17T20:53:52.595Z,22.07
2018-03-17T20:56:20.785Z,22.60
2018-03-17T20:58:49.125Z,21.53
2018-03-17T21:01:17.434Z,22.27
2018-03-17T21:03:46.458Z,21.17
2018-03-17T21:06:14.787Z,22.00
2018-03-17T21:08:43.053Z,22.77
2018-03-17T21:11:11.416Z,23.20
2018-03-17T21:13:39.696Z,22.20
2018-03-17T21:16:08.124Z,22.50
2018-03-17T21:18:36.341Z,22.30
2018-03-17T21:21:04.654Z,22.37
2018-03-17T21:23:33.680Z,23.77
2018-03-17T21:26:02.100Z,21.13
2018-03-17T21:28:30.488Z,21.83
2018-03-17T21:30:58.696Z,22.77
2018-03-17T21:33:26.966Z,21.90
2018-03-17T21:35:55.977Z,21.00
2018-03-17T21:38:24.180Z,23.30
2018-03-17T21:40:52.586Z,21.60
2018-03-17T21:43:20.980Z,21.50
2018-03-17T21:45:49.203Z,22.27
2018-03-17T21:48:17.618Z,22.47
2018-03-17T21:50:46.741Z,21.47
2018-03-17T21:53:15.808Z,21.80
2018-03-17T21:55:44.114Z,20.37
2018-03-17T21:58:13.227Z,22.13
2018-03-17T22:00:41.537Z,22.73
2018-03-17T22:03:10.583Z,21.40
2018-03-17T22:05:39.599Z,22.03
2018-03-17T22:08:07.872Z,22.40
2018-03-17T22:10:36.390Z,22.47
2018-03-17T22:13:05.611Z,22.63
2018-03-17T22:15:33.986Z,22.50
2018-03-17T22:18:02.177Z,21.97
2018-03-17T22:20:31.467Z,21.63
2018-03-17T22:22:59.689Z,22.43
2018-03-17T22:25:28.818Z,21.63
2018-03-17T22:27:57.130Z,23.00
2018-03-17T22:30:26.103Z,21.90
2018-03-17T22:32:54.500Z,22.10
2018-03-17T22:35:24.000Z,22.23
2018-03-17T22:37:52.310Z,20.40
2018-03-17T22:40:21.591Z,20.73
2018-03-17T22:42:49.847Z,21.73
2018-03-17T22:45:18.065Z,21.10
2018-03-17T22:47:46.271Z,21.37
2018-03-17T22:50:15.090Z,22.17
2018-03-17T22:52:44.212Z,23.33
2018-03-17T22:55:12.501Z,21.37
2018-03-17T22:57:40.804Z,22.17
2018-03-17T23:00:09.706Z,21.60
2018-03-17T23:02:38.141Z,22.57
2018-03-17T23:05:07.216Z,22.07
2018-03-17T23:07:35.722Z,23.67
2018-03-17T23:10:04.850Z,22.87
2018-03-17T23:12:33.213Z,21.97
2018-03-17T23:15:01.432Z,23.10
2018-03-17T23:17:29.746Z,22.60
2018-03-17T23:19:58.772Z,21.67
2018-03-17T23:22:26.981Z,22.60
2018-03-17T23:24:55.192Z,22.70
2018-03-17T23:27:23.550Z,21.53
2018-03-17T23:29:52.718Z,21.03
2018-03-17T23:32:21.330Z,22.77
2018-03-17T23:34:49.755Z,21.37
2018-03-17T23:37:18.134Z,22.97
2018-03-17T23:39:46.391Z,21.30
2018-03-17T23:42:15.520Z,23.40
2018-03-17T23:44:43.987Z,23.23
2018-03-17T23:47:12.292Z,22.67
2018-03-17T23:49:40.794Z,22.23
2018-03-17T23:52:09.086Z,23.73
2018-03-17T23:54:38.833Z,22.23
2018-03-17T23:57:07.715Z,22.57
2018-03-17T23:59:37.137Z,22.07
